Time;durP1;ratioP1;P1;durP2;ratioP2;P2;SDS_P1;SDS_P2;PMS_P1;PMS_P2;Temp;Humidity;BMP_temperature;BMP_pressure;BME280_temperature;BME280_humidity;BME280_pressure;Samples;Min_cycle;Max_cycle;Signal;HPM_P1;HPM_P2
2022/07/30 00:00:30;;;;;;;;;;;21.50;59.00;;;;;;4987600;28;20427;-71
2022/07/30 00:02:56;;;;;;;;;;;21.30;59.60;;;;;;4990100;28;20284;-73
2022/07/30 00:05:21;;;;;;;;;;;21.20;59.80;;;;;;4988386;28;20314;-71
2022/07/30 00:07:47;;;;;;;;;;;21.10;60.70;;;;;;4989530;28;20078;-71
2022/07/30 00:10:12;;;;;;;;;;;20.90;60.90;;;;;;4987244;28;20009;-72
2022/07/30 00:12:38;;;;;;;;;;;20.90;61.60;;;;;;4991031;28;20383;-71
2022/07/30 00:15:04;;;;;;;;;;;20.80;61.30;;;;;;4987437;28;19928;-71
2022/07/30 00:17:29;;;;;;;;;;;20.70;61.80;;;;;;4989164;28;20321;-72
2022/07/30 00:19:55;;;;;;;;;;;20.80;61.20;;;;;;4987806;28;19964;-71
2022/07/30 00:22:20;;;;;;;;;;;20.80;61.70;;;;;;4989731;28;20293;-72
2022/07/30 00:24:45;;;;;;;;;;;20.80;61.30;;;;;;4987344;28;19925;-72
2022/07/30 00:27:13;;;;;;;;;;;20.80;61.60;;;;;;4990545;28;19976;-72
2022/07/30 00:29:38;;;;;;;;;;;20.70;62.10;;;;;;4988008;28;19969;-72
2022/07/30 00:32:04;;;;;;;;;;;20.60;62.30;;;;;;4988371;28;20368;-73
2022/07/30 00:34:29;;;;;;;;;;;20.50;62.90;;;;;;4987534;28;19933;-71
2022/07/30 00:36:55;;;;;;;;;;;20.50;62.90;;;;;;4988701;28;19913;-72
2022/07/30 00:39:20;;;;;;;;;;;20.40;62.90;;;;;;4988092;28;19921;-73
2022/07/30 00:41:56;;;;;;;;;;;20.40;63.60;;;;;;4988403;28;19910;-74
2022/07/30 00:44:22;;;;;;;;;;;20.40;63.20;;;;;;4987080;28;19922;-72
2022/07/30 00:46:47;;;;;;;;;;;20.40;63.40;;;;;;4987047;28;20276;-73
2022/07/30 00:49:12;;;;;;;;;;;20.40;63.90;;;;;;4988845;28;20217;-72
2022/07/30 00:51:38;;;;;;;;;;;20.30;63.60;;;;;;4988765;28;19914;-72
2022/07/30 00:54:03;;;;;;;;;;;20.30;64.10;;;;;;4993112;28;19921;-71
2022/07/30 00:56:29;;;;;;;;;;;20.40;64.00;;;;;;4983039;28;20004;-75
2022/07/30 00:58:54;;;;;;;;;;;20.40;64.20;;;;;;4986990;28;19918;-78
2022/07/30 01:01:20;;;;;;;;;;;20.40;64.00;;;;;;4980965;28;19918;-72
2022/07/30 01:03:45;;;;;;;;;;;20.40;63.70;;;;;;4983018;28;19920;-73
2022/07/30 01:06:10;;;;;;;;;;;20.40;64.00;;;;;;4987801;28;19918;-74
2022/07/30 01:08:36;;;;;;;;;;;20.20;64.30;;;;;;4986496;28;20008;-74
2022/07/30 01:11:01;;;;;;;;;;;20.30;64.00;;;;;;4987572;28;19918;-73
2022/07/30 01:13:27;;;;;;;;;;;20.40;64.00;;;;;;4988742;28;19996;-76
2022/07/30 01:15:52;;;;;;;;;;;20.30;64.60;;;;;;4985399;28;20377;-75
2022/07/30 01:18:18;;;;;;;;;;;20.20;65.20;;;;;;4988691;28;19994;-75
2022/07/30 01:21:16;;;;;;;;;;;20.10;65.40;;;;;;4982191;28;19918;-76
2022/07/30 01:23:44;;;;;;;;;;;20.00;66.20;;;;;;4973221;28;19971;-75
2022/07/30 01:26:10;;;;;;;;;;;20.00;66.20;;;;;;4999862;28;19918;-76
2022/07/30 01:28:39;;;;;;;;;;;20.00;66.40;;;;;;4986790;28;20000;-76
2022/07/30 01:31:06;;;;;;;;;;;20.00;66.20;;;;;;4978950;28;20337;-76
2022/07/30 01:33:33;;;;;;;;;;;19.90;66.90;;;;;;4981432;28;19925;-76
2022/07/30 01:35:58;;;;;;;;;;;19.90;66.80;;;;;;4978825;28;20277;-75
2022/07/30 01:38:24;;;;;;;;;;;19.80;67.50;;;;;;4979013;28;20107;-75
2022/07/30 01:40:51;;;;;;;;;;;19.80;67.30;;;;;;4983145;28;20004;-75
2022/07/30 01:43:17;;;;;;;;;;;19.80;67.60;;;;;;4980216;28;19973;-74
2022/07/30 01:45:43;;;;;;;;;;;19.80;67.60;;;;;;4981028;28;20340;-75
2022/07/30 01:48:10;;;;;;;;;;;19.80;67.70;;;;;;4978657;28;19914;-75
2022/07/30 01:50:36;;;;;;;;;;;19.70;68.30;;;;;;4981479;28;19987;-75
2022/07/30 01:53:01;;;;;;;;;;;19.70;68.20;;;;;;4979695;28;19922;-74
2022/07/30 01:55:33;;;;;;;;;;;19.70;68.50;;;;;;4982725;28;19996;-74
2022/07/30 01:57:59;;;;;;;;;;;19.70;68.20;;;;;;4980851;28;20295;-74
2022/07/30 02:00:27;;;;;;;;;;;19.70;68.30;;;;;;4983344;28;19926;-74
2022/07/30 02:02:53;;;;;;;;;;;19.60;68.60;;;;;;4981468;28;20002;-76
2022/07/30 02:05:19;;;;;;;;;;;19.60;68.40;;;;;;4981522;28;19956;-76
2022/07/30 02:07:53;;;;;;;;;;;19.70;68.30;;;;;;4982850;28;20392;-75
2022/07/30 02:10:25;;;;;;;;;;;19.70;68.80;;;;;;4981521;28;19917;-76
2022/07/30 02:12:52;;;;;;;;;;;19.70;68.50;;;;;;4982506;28;19918;-74
2022/07/30 02:15:36;;;;;;;;;;;19.70;68.10;;;;;;4981207;28;19922;-74
2022/07/30 02:18:09;;;;;;;;;;;19.80;68.10;;;;;;4979186;28;19922;-79
2022/07/30 02:20:34;;;;;;;;;;;19.80;68.40;;;;;;4981945;28;19914;-82
2022/07/30 02:23:02;;;;;;;;;;;19.60;69.20;;;;;;4980238;28;19924;-80
2022/07/30 02:25:28;;;;;;;;;;;19.60;69.30;;;;;;4981601;28;19942;-78
2022/07/30 02:27:56;;;;;;;;;;;19.50;69.90;;;;;;4981403;28;20447;-74
2022/07/30 02:30:25;;;;;;;;;;;19.50;70.00;;;;;;4981183;28;19973;-77
2022/07/30 02:32:53;;;;;;;;;;;19.40;70.10;;;;;;4986441;28;19917;-76
2022/07/30 02:35:19;;;;;;;;;;;19.40;70.70;;;;;;4980311;28;19918;-78
2022/07/30 02:37:47;;;;;;;;;;;19.30;70.70;;;;;;4980743;28;19914;-77
2022/07/30 02:40:14;;;;;;;;;;;19.30;71.20;;;;;;4979751;28;19925;-75
2022/07/30 02:42:41;;;;;;;;;;;19.20;71.30;;;;;;4985824;28;19949;-74
2022/07/30 02:45:07;;;;;;;;;;;19.20;71.60;;;;;;5005788;28;20133;-74
2022/07/30 02:47:33;;;;;;;;;;;19.10;71.80;;;;;;4992803;28;19917;-80
2022/07/30 02:49:59;;;;;;;;;;;19.10;72.40;;;;;;4986767;28;19914;-69
2022/07/30 02:52:25;;;;;;;;;;;19.10;72.30;;;;;;4985477;28;19917;-79
2022/07/30 02:54:51;;;;;;;;;;;19.30;71.90;;;;;;4977765;28;19933;-81
2022/07/30 02:57:18;;;;;;;;;;;19.10;72.20;;;;;;4979478;28;20643;-78
2022/07/30 02:59:45;;;;;;;;;;;19.10;73.00;;;;;;4984237;28;19971;-79
2022/07/30 03:02:12;;;;;;;;;;;19.10;72.80;;;;;;4977796;28;20043;-81
2022/07/30 03:04:38;;;;;;;;;;;19.00;73.50;;;;;;4981754;28;19924;-78
2022/07/30 03:07:05;;;;;;;;;;;19.00;74.50;;;;;;4984301;28;19917;-80
2022/07/30 03:09:30;;;;;;;;;;;18.90;74.70;;;;;;4980472;28;19914;-80
2022/07/30 03:11:56;;;;;;;;;;;18.90;75.10;;;;;;4982327;28;19914;-80
2022/07/30 03:14:21;;;;;;;;;;;18.80;75.70;;;;;;4980016;28;19925;-80
2022/07/30 03:16:52;;;;;;;;;;;18.80;76.10;;;;;;4982367;28;19963;-77
2022/07/30 03:19:21;;;;;;;;;;;18.80;76.00;;;;;;4978254;28;20237;-79
2022/07/30 03:21:47;;;;;;;;;;;18.70;75.90;;;;;;4981618;28;20289;-78
2022/07/30 03:24:13;;;;;;;;;;;18.70;76.20;;;;;;4985798;28;19964;-78
2022/07/30 03:26:39;;;;;;;;;;;18.70;77.10;;;;;;4987639;28;19953;-79
2022/07/30 03:29:06;;;;;;;;;;;18.70;77.50;;;;;;4984990;28;19956;-78
2022/07/30 03:31:31;;;;;;;;;;;18.80;77.50;;;;;;4996853;28;19957;-78
2022/07/30 03:33:57;;;;;;;;;;;18.70;78.10;;;;;;4986199;28;19957;-78
2022/07/30 03:36:23;;;;;;;;;;;18.70;78.50;;;;;;4984513;28;19922;-79
2022/07/30 03:38:49;;;;;;;;;;;18.70;78.70;;;;;;4986512;28;19921;-79
2022/07/30 03:41:15;;;;;;;;;;;18.70;79.10;;;;;;4988130;28;20364;-80
2022/07/30 03:43:40;;;;;;;;;;;18.70;78.70;;;;;;4984477;28;20399;-79
2022/07/30 03:46:06;;;;;;;;;;;18.70;79.40;;;;;;4988572;28;19957;-80
2022/07/30 03:48:35;;;;;;;;;;;18.70;79.30;;;;;;4984890;28;19922;-79
2022/07/30 03:51:02;;;;;;;;;;;18.70;79.10;;;;;;5004428;28;19914;-80
2022/07/30 03:53:28;;;;;;;;;;;18.70;80.10;;;;;;4986014;28;19980;-79
2022/07/30 03:55:54;;;;;;;;;;;18.60;80.10;;;;;;4986759;28;19922;-79
2022/07/30 03:58:19;;;;;;;;;;;18.60;80.50;;;;;;4986565;28;19917;-79
2022/07/30 04:00:46;;;;;;;;;;;18.70;81.00;;;;;;5003090;28;19925;-79
2022/07/30 04:03:11;;;;;;;;;;;18.70;81.70;;;;;;4987356;28;19918;-78
2022/07/30 04:05:36;;;;;;;;;;;18.70;82.90;;;;;;4988334;28;20494;-79
2022/07/30 04:08:02;;;;;;;;;;;18.70;83.50;;;;;;4988717;28;20311;-79
2022/07/30 04:10:27;;;;;;;;;;;18.70;82.90;;;;;;4993408;28;20501;-80
2022/07/30 04:12:55;;;;;;;;;;;18.70;83.70;;;;;;4986931;28;19917;-79
2022/07/30 04:15:20;;;;;;;;;;;18.70;83.00;;;;;;4986066;28;19941;-79
2022/07/30 04:17:52;;;;;;;;;;;18.70;83.40;;;;;;4991268;28;20380;-79
2022/07/30 04:20:20;;;;;;;;;;;18.70;85.00;;;;;;4991576;28;19917;-79
2022/07/30 04:22:47;;;;;;;;;;;18.60;85.20;;;;;;4993424;28;19917;-78
2022/07/30 04:25:13;;;;;;;;;;;18.60;85.90;;;;;;4998738;28;19925;-80
2022/07/30 04:27:39;;;;;;;;;;;18.60;86.60;;;;;;4998874;28;19917;-81
2022/07/30 04:30:04;;;;;;;;;;;18.50;87.60;;;;;;4999908;28;20379;-78
2022/07/30 04:32:30;;;;;;;;;;;18.60;87.90;;;;;;4990086;28;20270;-78
2022/07/30 04:34:56;;;;;;;;;;;18.60;88.10;;;;;;4988537;28;19922;-77
2022/07/30 04:37:23;;;;;;;;;;;18.70;88.10;;;;;;4997913;28;19922;-77
2022/07/30 04:39:52;;;;;;;;;;;18.60;89.30;;;;;;4987998;28;19961;-77
2022/07/30 04:42:18;;;;;;;;;;;18.50;89.90;;;;;;4991157;28;19952;-78
2022/07/30 04:44:44;;;;;;;;;;;18.50;90.60;;;;;;4988177;28;19957;-78
2022/07/30 04:47:09;;;;;;;;;;;18.50;90.30;;;;;;4993000;28;20462;-79
2022/07/30 04:49:35;;;;;;;;;;;18.50;90.80;;;;;;4987935;28;20464;-79
2022/07/30 04:52:02;;;;;;;;;;;18.50;91.40;;;;;;5001174;28;19917;-80
2022/07/30 04:54:31;;;;;;;;;;;18.60;91.20;;;;;;4987809;28;20022;-78
2022/07/30 04:56:56;;;;;;;;;;;18.60;91.40;;;;;;4993211;28;19917;-78
2022/07/30 04:59:23;;;;;;;;;;;18.60;91.80;;;;;;4990018;28;20028;-78
2022/07/30 05:01:49;;;;;;;;;;;18.50;91.70;;;;;;4985264;28;19910;-79
2022/07/30 05:04:15;;;;;;;;;;;18.60;91.50;;;;;;4988366;28;19920;-80
2022/07/30 05:06:41;;;;;;;;;;;18.80;91.40;;;;;;4987415;28;20373;-79
2022/07/30 05:09:07;;;;;;;;;;;18.70;91.60;;;;;;4981757;28;20571;-80
2022/07/30 05:11:32;;;;;;;;;;;18.70;91.60;;;;;;5002748;28;19918;-80
2022/07/30 05:13:58;;;;;;;;;;;18.80;91.50;;;;;;4986931;28;20056;-81
2022/07/30 05:16:23;;;;;;;;;;;18.80;91.70;;;;;;4988750;28;19921;-80
2022/07/30 05:18:49;;;;;;;;;;;18.80;91.30;;;;;;4987875;28;20364;-80
2022/07/30 05:21:15;;;;;;;;;;;19.00;91.30;;;;;;4991583;28;20269;-79
2022/07/30 05:23:40;;;;;;;;;;;19.00;90.90;;;;;;4990244;28;20372;-80
2022/07/30 05:26:06;;;;;;;;;;;19.00;90.90;;;;;;4999505;28;19921;-79
2022/07/30 05:28:31;;;;;;;;;;;19.00;91.40;;;;;;4990559;28;19971;-79
2022/07/30 05:30:57;;;;;;;;;;;19.00;91.50;;;;;;5000219;28;20340;-80
2022/07/30 05:33:22;;;;;;;;;;;19.20;91.10;;;;;;4990639;28;19917;-80
2022/07/30 05:35:48;;;;;;;;;;;19.30;91.10;;;;;;4989373;28;20403;-80
2022/07/30 05:38:14;;;;;;;;;;;19.10;91.30;;;;;;4992335;28;19918;-81
2022/07/30 05:40:39;;;;;;;;;;;19.20;91.50;;;;;;4990635;28;19921;-80
2022/07/30 05:43:06;;;;;;;;;;;19.10;91.60;;;;;;4994393;28;19917;-80
2022/07/30 05:45:31;;;;;;;;;;;19.00;92.20;;;;;;5004104;28;19999;-80
2022/07/30 05:47:56;;;;;;;;;;;19.00;92.30;;;;;;4995148;28;19973;-80
2022/07/30 05:50:22;;;;;;;;;;;19.00;92.30;;;;;;5005819;28;20485;-81
2022/07/30 05:52:47;;;;;;;;;;;19.30;91.70;;;;;;4996028;28;19917;-80
2022/07/30 05:55:13;;;;;;;;;;;19.30;91.50;;;;;;4994190;28;19921;-80
2022/07/30 05:57:40;;;;;;;;;;;19.20;91.60;;;;;;4989274;28;19929;-77
2022/07/30 06:00:07;;;;;;;;;;;19.00;91.90;;;;;;4993505;28;20101;-81
2022/07/30 06:02:32;;;;;;;;;;;18.90;92.80;;;;;;4990463;28;19924;-79
2022/07/30 06:04:57;;;;;;;;;;;19.00;92.60;;;;;;4988094;28;19910;-79
2022/07/30 06:07:23;;;;;;;;;;;19.00;92.50;;;;;;4993990;28;19933;-79
2022/07/30 06:09:48;;;;;;;;;;;18.90;93.00;;;;;;4987422;28;19913;-79
2022/07/30 06:12:14;;;;;;;;;;;19.00;93.40;;;;;;4991359;28;19918;-79
2022/07/30 06:14:39;;;;;;;;;;;19.10;93.80;;;;;;4987062;28;19914;-78
2022/07/30 06:17:05;;;;;;;;;;;19.10;92.90;;;;;;4992746;28;20097;-80
2022/07/30 06:19:30;;;;;;;;;;;19.00;93.00;;;;;;4987313;28;19917;-78
2022/07/30 06:21:56;;;;;;;;;;;19.10;92.80;;;;;;4990251;28;19965;-79
2022/07/30 06:24:21;;;;;;;;;;;19.10;92.80;;;;;;4986975;28;19972;-79
2022/07/30 06:26:47;;;;;;;;;;;19.20;92.50;;;;;;4992851;28;19961;-79
2022/07/30 06:29:12;;;;;;;;;;;19.10;92.60;;;;;;4985173;28;19968;-79
2022/07/30 06:31:38;;;;;;;;;;;19.20;93.00;;;;;;4990095;28;19925;-78
2022/07/30 06:34:04;;;;;;;;;;;19.30;93.90;;;;;;4987155;28;19918;-78
2022/07/30 06:36:29;;;;;;;;;;;19.20;92.80;;;;;;4995524;28;20013;-79
2022/07/30 06:38:55;;;;;;;;;;;19.20;92.60;;;;;;4988694;28;19914;-79
2022/07/30 06:41:20;;;;;;;;;;;19.40;92.30;;;;;;4988426;28;19920;-78
2022/07/30 06:43:46;;;;;;;;;;;19.60;92.40;;;;;;4990388;28;20408;-79
2022/07/30 06:46:11;;;;;;;;;;;19.50;92.60;;;;;;5002371;28;19922;-80
2022/07/30 06:48:37;;;;;;;;;;;19.80;91.60;;;;;;4991415;28;19924;-80
2022/07/30 06:51:02;;;;;;;;;;;19.70;91.50;;;;;;4994388;28;20638;-78
2022/07/30 06:53:27;;;;;;;;;;;19.80;91.70;;;;;;4988560;28;19917;-79
2022/07/30 06:55:53;;;;;;;;;;;19.70;91.80;;;;;;4992865;28;19928;-79
2022/07/30 06:58:18;;;;;;;;;;;19.60;91.70;;;;;;4987456;28;19918;-79
2022/07/30 07:00:44;;;;;;;;;;;19.80;92.00;;;;;;4988640;28;19929;-80
2022/07/30 07:03:10;;;;;;;;;;;19.90;92.10;;;;;;4992510;28;19968;-80
2022/07/30 07:05:35;;;;;;;;;;;19.80;91.70;;;;;;4990606;28;20503;-81
2022/07/30 07:08:01;;;;;;;;;;;19.90;91.70;;;;;;4988256;28;20369;-80
2022/07/30 07:10:26;;;;;;;;;;;20.10;91.20;;;;;;4980781;28;19968;-79
2022/07/30 07:12:52;;;;;;;;;;;20.10;91.40;;;;;;4989262;28;20642;-80
2022/07/30 07:15:17;;;;;;;;;;;19.80;92.00;;;;;;4986898;28;19918;-80
2022/07/30 07:17:43;;;;;;;;;;;19.60;92.20;;;;;;4993977;28;19914;-81
2022/07/30 07:20:09;;;;;;;;;;;19.80;92.20;;;;;;4978055;28;19921;-82
2022/07/30 07:22:34;;;;;;;;;;;19.90;92.00;;;;;;4988487;28;20008;-82
2022/07/30 07:24:59;;;;;;;;;;;20.00;91.80;;;;;;4987148;28;20383;-79
2022/07/30 07:27:25;;;;;;;;;;;20.10;92.20;;;;;;4998581;28;21073;-81
2022/07/30 07:29:50;;;;;;;;;;;19.90;92.60;;;;;;4980965;28;19910;-81
2022/07/30 07:32:16;;;;;;;;;;;20.10;91.90;;;;;;4990091;28;20017;-82
2022/07/30 07:34:41;;;;;;;;;;;20.10;92.00;;;;;;4987099;28;19952;-83
2022/07/30 07:37:07;;;;;;;;;;;20.20;92.00;;;;;;5001474;28;19918;-79
2022/07/30 07:39:32;;;;;;;;;;;20.20;91.70;;;;;;4984479;28;19921;-80
2022/07/30 07:41:57;;;;;;;;;;;20.20;91.80;;;;;;4985921;28;20005;-79
2022/07/30 07:44:23;;;;;;;;;;;20.20;91.90;;;;;;4984558;28;20458;-78
2022/07/30 07:46:48;;;;;;;;;;;20.20;92.10;;;;;;4991317;28;20372;-73
2022/07/30 07:49:14;;;;;;;;;;;20.20;92.10;;;;;;4985962;28;20519;-81
2022/07/30 07:51:39;;;;;;;;;;;20.10;92.10;;;;;;4993693;28;19922;-82
2022/07/30 07:54:05;;;;;;;;;;;20.20;92.50;;;;;;4987569;28;19924;-80
2022/07/30 07:56:30;;;;;;;;;;;20.10;92.50;;;;;;5000588;28;20294;-80
2022/07/30 07:58:56;;;;;;;;;;;20.30;92.10;;;;;;4993203;28;20336;-82
2022/07/30 08:01:21;;;;;;;;;;;20.10;92.30;;;;;;4991994;28;19921;-81
2022/07/30 08:03:47;;;;;;;;;;;20.40;92.10;;;;;;4994230;28;19929;-77
2022/07/30 08:06:13;;;;;;;;;;;20.50;92.00;;;;;;5003977;28;19983;-81
2022/07/30 08:08:38;;;;;;;;;;;20.60;91.60;;;;;;4995906;28;20393;-79
2022/07/30 08:11:05;;;;;;;;;;;20.70;91.70;;;;;;4997038;28;19925;-77
2022/07/30 08:13:31;;;;;;;;;;;20.70;92.20;;;;;;4988989;28;20312;-78
2022/07/30 08:15:57;;;;;;;;;;;20.80;91.80;;;;;;4991956;28;20005;-78
2022/07/30 08:18:23;;;;;;;;;;;20.60;91.80;;;;;;4977911;28;19925;-77
2022/07/30 08:20:49;;;;;;;;;;;20.70;92.20;;;;;;4990613;28;19917;-77
2022/07/30 08:23:14;;;;;;;;;;;20.70;91.60;;;;;;5001386;28;19917;-81
2022/07/30 08:25:40;;;;;;;;;;;20.70;91.60;;;;;;4973778;28;20040;-78
2022/07/30 08:28:05;;;;;;;;;;;20.80;92.00;;;;;;4990199;28;19918;-77
2022/07/30 08:30:31;;;;;;;;;;;20.70;91.80;;;;;;4989881;28;19975;-77
2022/07/30 08:32:56;;;;;;;;;;;20.80;91.90;;;;;;4991437;28;20355;-79
2022/07/30 08:35:21;;;;;;;;;;;21.00;92.00;;;;;;4989035;28;19929;-80
2022/07/30 08:37:47;;;;;;;;;;;21.00;91.30;;;;;;4996999;28;19924;-79
2022/07/30 08:40:12;;;;;;;;;;;21.10;91.00;;;;;;4988824;28;20325;-78
2022/07/30 08:42:38;;;;;;;;;;;21.30;90.90;;;;;;4993817;28;19941;-79
2022/07/30 08:45:04;;;;;;;;;;;21.40;91.10;;;;;;4988644;28;19914;-79
2022/07/30 08:47:33;;;;;;;;;;;21.60;91.30;;;;;;4987547;28;19917;-79
2022/07/30 08:50:05;;;;;;;;;;;21.90;90.80;;;;;;4991508;28;20384;-78
2022/07/30 08:52:32;;;;;;;;;;;21.40;90.70;;;;;;4990615;28;20288;-77
2022/07/30 08:54:58;;;;;;;;;;;21.50;90.80;;;;;;4989272;28;19917;-78
2022/07/30 08:57:23;;;;;;;;;;;21.70;90.90;;;;;;5008879;28;19971;-77
2022/07/30 08:59:50;;;;;;;;;;;21.70;90.30;;;;;;4988730;28;19922;-79
2022/07/30 09:02:15;;;;;;;;;;;21.70;90.10;;;;;;4988592;28;19914;-79
2022/07/30 09:04:41;;;;;;;;;;;21.90;90.30;;;;;;4988057;28;19925;-77
2022/07/30 09:07:07;;;;;;;;;;;21.80;90.60;;;;;;5002428;28;20308;-77
2022/07/30 09:09:32;;;;;;;;;;;22.00;90.50;;;;;;4988866;28;19918;-79
2022/07/30 09:11:58;;;;;;;;;;;22.10;90.70;;;;;;4996654;28;19925;-78
2022/07/30 09:14:23;;;;;;;;;;;22.00;90.50;;;;;;4989762;28;19926;-78
2022/07/30 09:16:54;;;;;;;;;;;22.10;90.50;;;;;;4992278;28;20584;-79
2022/07/30 09:19:23;;;;;;;;;;;22.40;90.00;;;;;;4981942;28;19984;-79
2022/07/30 09:21:58;;;;;;;;;;;22.20;90.20;;;;;;4996020;28;20011;-79
2022/07/30 09:24:24;;;;;;;;;;;22.10;90.00;;;;;;4973275;28;19918;-78
2022/07/30 09:26:54;;;;;;;;;;;22.30;89.40;;;;;;4989696;28;19913;-78
2022/07/30 09:29:21;;;;;;;;;;;22.40;89.40;;;;;;4990671;28;19997;-79
2022/07/30 09:32:00;;;;;;;;;;;22.30;90.00;;;;;;4993837;28;20100;-73
2022/07/30 09:34:27;;;;;;;;;;;22.50;89.70;;;;;;4988826;28;20025;-77
2022/07/30 09:36:53;;;;;;;;;;;22.40;90.10;;;;;;4988319;28;20021;-78
2022/07/30 09:39:28;;;;;;;;;;;22.50;90.00;;;;;;4987524;28;20111;-79
2022/07/30 09:41:55;;;;;;;;;;;22.30;89.60;;;;;;4988202;28;19914;-78
2022/07/30 09:44:25;;;;;;;;;;;22.30;89.10;;;;;;4990345;28;19914;-76
2022/07/30 09:46:51;;;;;;;;;;;22.60;90.40;;;;;;4996917;28;19924;-77
2022/07/30 09:49:17;;;;;;;;;;;23.00;89.40;;;;;;4990853;28;20008;-77
2022/07/30 09:51:43;;;;;;;;;;;23.10;88.60;;;;;;5001394;28;19964;-76
2022/07/30 09:54:09;;;;;;;;;;;23.30;88.40;;;;;;4989058;28;19918;-76
2022/07/30 09:56:34;;;;;;;;;;;23.40;87.90;;;;;;4994563;28;19948;-76
2022/07/30 09:59:00;;;;;;;;;;;23.60;87.40;;;;;;4993520;28;19928;-76
2022/07/30 10:01:27;;;;;;;;;;;23.50;87.00;;;;;;5000666;28;20369;-78
2022/07/30 10:03:52;;;;;;;;;;;23.20;86.90;;;;;;4989836;28;19922;-79
2022/07/30 10:06:18;;;;;;;;;;;23.50;86.90;;;;;;5003434;28;19991;-79
2022/07/30 10:08:50;;;;;;;;;;;23.60;86.10;;;;;;4993051;28;19917;-77
2022/07/30 10:11:17;;;;;;;;;;;24.00;86.40;;;;;;5006628;28;19920;-76
2022/07/30 10:13:43;;;;;;;;;;;24.30;85.50;;;;;;4977395;28;19925;-78
2022/07/30 10:16:09;;;;;;;;;;;24.70;86.10;;;;;;5003756;28;19917;-74
2022/07/30 10:18:35;;;;;;;;;;;24.70;85.00;;;;;;4977165;28;19914;-78
2022/07/30 10:21:01;;;;;;;;;;;24.60;82.20;;;;;;4987541;28;19914;-78
2022/07/30 10:23:28;;;;;;;;;;;24.60;81.70;;;;;;4993932;28;20390;-79
2022/07/30 10:25:57;;;;;;;;;;;24.30;81.30;;;;;;4986858;28;20632;-77
2022/07/30 10:28:23;;;;;;;;;;;24.40;81.30;;;;;;4990164;28;19925;-75
2022/07/30 10:30:49;;;;;;;;;;;24.20;81.90;;;;;;4986804;28;19921;-76
2022/07/30 10:33:16;;;;;;;;;;;23.90;82.50;;;;;;4987379;28;20380;-76
2022/07/30 10:35:41;;;;;;;;;;;24.00;83.40;;;;;;4986777;28;20013;-76
2022/07/30 10:38:09;;;;;;;;;;;24.00;82.50;;;;;;4995909;28;20008;-77
2022/07/30 10:40:36;;;;;;;;;;;24.00;83.60;;;;;;4986473;28;19914;-78
2022/07/30 10:43:02;;;;;;;;;;;24.10;83.90;;;;;;4988251;28;19961;-79
2022/07/30 10:45:42;;;;;;;;;;;24.70;82.20;;;;;;4986148;28;19914;-78
2022/07/30 10:48:07;;;;;;;;;;;24.50;81.50;;;;;;4984458;28;19976;-78
2022/07/30 10:50:47;;;;;;;;;;;24.80;81.60;;;;;;4984860;28;19922;-78
2022/07/30 10:53:30;;;;;;;;;;;25.20;81.50;;;;;;4973092;28;20306;-80
2022/07/30 10:56:09;;;;;;;;;;;25.10;79.80;;;;;;4986544;28;19964;-77
2022/07/30 10:58:54;;;;;;;;;;;25.80;79.00;;;;;;4972608;28;19924;-77
2022/07/30 11:01:20;;;;;;;;;;;25.70;77.80;;;;;;4986401;28;20304;-78
2022/07/30 11:04:05;;;;;;;;;;;26.00;78.60;;;;;;4986250;28;19921;-77
2022/07/30 11:06:30;;;;;;;;;;;25.80;76.70;;;;;;4985224;28;19925;-77
2022/07/30 11:08:56;;;;;;;;;;;25.40;77.10;;;;;;4994037;28;19921;-76
2022/07/30 11:11:21;;;;;;;;;;;25.50;76.20;;;;;;4997963;28;19918;-78
2022/07/30 11:13:47;;;;;;;;;;;26.00;75.70;;;;;;5001192;28;20420;-77
2022/07/30 11:16:13;;;;;;;;;;;26.10;74.10;;;;;;4984239;28;19921;-78
2022/07/30 11:18:57;;;;;;;;;;;26.40;74.50;;;;;;4987317;28;19924;-77
2022/07/30 11:21:22;;;;;;;;;;;26.90;74.00;;;;;;4986617;28;20471;-78
2022/07/30 11:23:48;;;;;;;;;;;27.20;72.30;;;;;;4989724;28;19922;-78
2022/07/30 11:26:32;;;;;;;;;;;26.30;70.80;;;;;;4986189;28;19921;-78
2022/07/30 11:28:57;;;;;;;;;;;26.50;71.10;;;;;;4991916;28;19925;-78
2022/07/30 11:31:30;;;;;;;;;;;26.80;69.30;;;;;;4998282;28;19965;-78
2022/07/30 11:34:14;;;;;;;;;;;27.00;70.30;;;;;;4994971;28;19940;-78
2022/07/30 11:36:58;;;;;;;;;;;27.50;67.30;;;;;;5000326;28;20036;-77
2022/07/30 11:39:44;;;;;;;;;;;28.00;65.00;;;;;;4989941;28;20004;-78
2022/07/30 11:42:28;;;;;;;;;;;27.90;63.60;;;;;;4978774;28;20129;-77
2022/07/30 11:45:12;;;;;;;;;;;28.00;62.60;;;;;;4987142;28;19917;-77
2022/07/30 11:47:38;;;;;;;;;;;28.60;59.90;;;;;;4996196;28;20008;-76
2022/07/30 11:50:03;;;;;;;;;;;27.70;61.70;;;;;;4985683;28;19941;-76
2022/07/30 11:52:29;;;;;;;;;;;27.30;64.30;;;;;;4997402;28;19949;-78
2022/07/30 11:54:55;;;;;;;;;;;27.30;64.70;;;;;;4986738;28;19928;-77
2022/07/30 11:57:37;;;;;;;;;;;28.70;59.80;;;;;;4994523;28;20221;-77
2022/07/30 12:00:03;;;;;;;;;;;29.00;58.90;;;;;;4984950;28;19930;-77
2022/07/30 12:02:28;;;;;;;;;;;28.70;60.30;;;;;;4989491;28;19924;-77
2022/07/30 12:04:54;;;;;;;;;;;28.50;59.40;;;;;;4984362;28;19925;-77
2022/07/30 12:07:22;;;;;;;;;;;28.30;58.80;;;;;;4990873;28;19918;-78
2022/07/30 12:09:48;;;;;;;;;;;28.60;59.00;;;;;;4984774;28;19977;-77
2022/07/30 12:12:22;;;;;;;;;;;27.70;59.60;;;;;;4995641;28;20028;-78
2022/07/30 12:14:48;;;;;;;;;;;28.20;57.90;;;;;;4988943;28;19913;-77
2022/07/30 12:17:14;;;;;;;;;;;29.20;57.00;;;;;;4990674;28;20356;-78
2022/07/30 12:19:46;;;;;;;;;;;30.30;54.40;;;;;;4989719;28;19917;-75
2022/07/30 12:22:11;;;;;;;;;;;30.20;53.90;;;;;;4987323;28;20127;-79
2022/07/30 12:24:37;;;;;;;;;;;29.40;55.10;;;;;;4990076;28;20388;-78
2022/07/30 12:27:03;;;;;;;;;;;29.90;53.20;;;;;;4998745;28;19969;-78
2022/07/30 12:29:30;;;;;;;;;;;29.70;53.90;;;;;;4991571;28;19983;-77
2022/07/30 12:31:56;;;;;;;;;;;29.50;54.80;;;;;;4986014;28;19918;-78
2022/07/30 12:34:23;;;;;;;;;;;29.20;52.60;;;;;;4988380;28;19967;-78
2022/07/30 12:36:48;;;;;;;;;;;29.30;54.80;;;;;;4994974;28;19928;-76
2022/07/30 12:39:17;;;;;;;;;;;29.30;53.90;;;;;;4985207;28;19918;-77
2022/07/30 12:41:47;;;;;;;;;;;28.50;53.60;;;;;;4992367;28;20415;-79
2022/07/30 12:44:31;;;;;;;;;;;29.70;53.70;;;;;;4997778;28;19918;-78
2022/07/30 12:46:56;;;;;;;;;;;30.50;52.60;;;;;;4988898;28;20365;-78
2022/07/30 12:49:27;;;;;;;;;;;30.60;51.00;;;;;;4995794;28;20008;-78
2022/07/30 12:51:52;;;;;;;;;;;30.40;50.90;;;;;;4990376;28;19964;-77
2022/07/30 12:54:18;;;;;;;;;;;31.50;49.70;;;;;;4993318;28;19945;-77
2022/07/30 12:56:55;;;;;;;;;;;31.00;50.00;;;;;;5002425;28;19996;-76
2022/07/30 12:59:21;;;;;;;;;;;29.30;52.80;;;;;;4984593;28;19925;-75
2022/07/30 13:01:48;;;;;;;;;;;29.60;51.70;;;;;;4975446;28;19918;-79
2022/07/30 13:04:14;;;;;;;;;;;29.10;52.00;;;;;;4997252;28;19921;-78
2022/07/30 13:06:40;;;;;;;;;;;29.60;51.30;;;;;;4990367;28;19924;-78
2022/07/30 13:09:15;;;;;;;;;;;30.00;51.90;;;;;;4988840;28;19996;-77
2022/07/30 13:11:42;;;;;;;;;;;28.90;52.40;;;;;;4987673;28;19914;-79
2022/07/30 13:14:09;;;;;;;;;;;28.00;53.50;;;;;;4993412;28;19922;-84
2022/07/30 13:16:35;;;;;;;;;;;28.30;53.00;;;;;;4988334;28;19925;-78
2022/07/30 13:19:04;;;;;;;;;;;28.40;53.40;;;;;;4993047;28;19936;-76
2022/07/30 13:21:30;;;;;;;;;;;27.60;54.30;;;;;;4986284;28;20335;-76
2022/07/30 13:23:55;;;;;;;;;;;27.20;54.40;;;;;;4995135;28;19965;-79
2022/07/30 13:26:21;;;;;;;;;;;28.10;55.20;;;;;;4989043;28;19916;-78
2022/07/30 13:28:46;;;;;;;;;;;29.50;53.90;;;;;;5001308;28;19918;-76
2022/07/30 13:31:12;;;;;;;;;;;30.20;50.80;;;;;;4988039;28;19918;-78
2022/07/30 13:33:38;;;;;;;;;;;29.60;49.70;;;;;;4989833;28;20361;-74
2022/07/30 13:36:04;;;;;;;;;;;28.90;52.60;;;;;;4987197;28;20391;-75
2022/07/30 13:38:29;;;;;;;;;;;29.60;52.40;;;;;;5003307;28;20004;-78
2022/07/30 13:40:55;;;;;;;;;;;29.60;50.10;;;;;;4987615;28;19996;-78
2022/07/30 13:43:20;;;;;;;;;;;29.10;51.20;;;;;;4993181;28;20329;-77
2022/07/30 13:45:46;;;;;;;;;;;28.40;51.20;;;;;;4985717;28;20416;-75
2022/07/30 13:48:12;;;;;;;;;;;28.80;50.70;;;;;;4990076;28;19967;-77
2022/07/30 13:50:38;;;;;;;;;;;30.60;49.80;;;;;;4986564;28;19921;-77
2022/07/30 13:53:04;;;;;;;;;;;30.20;50.10;;;;;;4997709;28;19917;-77
2022/07/30 13:55:29;;;;;;;;;;;30.80;49.30;;;;;;4988738;28;19926;-76
2022/07/30 13:57:55;;;;;;;;;;;29.90;48.70;;;;;;5000282;28;20020;-75
2022/07/30 14:00:21;;;;;;;;;;;29.60;50.80;;;;;;4988698;28;19933;-76
2022/07/30 14:02:47;;;;;;;;;;;30.30;50.40;;;;;;4992634;28;19924;-79
2022/07/30 14:05:12;;;;;;;;;;;31.00;50.70;;;;;;4989992;28;19937;-75
2022/07/30 14:07:38;;;;;;;;;;;32.20;47.70;;;;;;4997584;28;20364;-78
2022/07/30 14:10:06;;;;;;;;;;;31.80;46.50;;;;;;4990311;28;21543;-76
2022/07/30 14:12:31;;;;;;;;;;;30.20;48.90;;;;;;5000264;28;19925;-81
2022/07/30 14:14:57;;;;;;;;;;;28.80;50.10;;;;;;4995325;28;19918;-74